sensor_id;sensor_type;location;lat;lon;timestamp;pressure;altitude;pressure_sealevel;temperature;humidity
10652;BME280;5374;42.742;23.266;2023-03-15T00:01:51;94485.94;;;6.88;53.61
10652;BME280;5374;42.742;23.266;2023-03-15T00:04:39;94485.31;;;6.81;53.98
10652;BME280;5374;42.742;23.266;2023-03-15T00:07:26;94463.47;;;6.59;54.38
10652;BME280;5374;42.742;23.266;2023-03-15T00:10:15;94477.56;;;6.69;54.81
10652;BME280;5374;42.742;23.266;2023-03-15T00:13:02;94476.16;;;6.62;55.27
10652;BME280;5374;42.742;23.266;2023-03-15T00:15:52;94474.56;;;6.61;55.24
10652;BME280;5374;42.742;23.266;2023-03-15T00:18:42;94477.94;;;6.56;55.61
10652;BME280;5374;42.742;23.266;2023-03-15T00:21:29;94482.16;;;6.52;55.83
10652;BME280;5374;42.742;23.266;2023-03-15T00:24:17;94473.69;;;6.50;56.26
10652;BME280;5374;42.742;23.266;2023-03-15T00:27:06;94466.03;;;6.48;56.36
10652;BME280;5374;42.742;23.266;2023-03-15T00:29:53;94473.88;;;6.43;56.58
10652;BME280;5374;42.742;23.266;2023-03-15T00:32:43;94467.00;;;6.42;56.52
10652;BME280;5374;42.742;23.266;2023-03-15T00:35:31;94435.41;;;6.21;56.45
10652;BME280;5374;42.742;23.266;2023-03-15T00:38:21;94463.03;;;6.40;56.58
10652;BME280;5374;42.742;23.266;2023-03-15T00:41:09;94465.66;;;6.40;56.65
10652;BME280;5374;42.742;23.266;2023-03-15T00:43:58;94464.06;;;6.39;56.95
10652;BME280;5374;42.742;23.266;2023-03-15T00:46:45;94458.22;;;6.37;57.22
10652;BME280;5374;42.742;23.266;2023-03-15T00:49:32;94440.72;;;6.26;57.33
10652;BME280;5374;42.742;23.266;2023-03-15T00:52:19;94452.47;;;6.40;57.40
10652;BME280;5374;42.742;23.266;2023-03-15T00:55:10;94442.09;;;6.33;57.67
10652;BME280;5374;42.742;23.266;2023-03-15T00:57:59;94442.09;;;6.33;57.67
10652;BME280;5374;42.742;23.266;2023-03-15T01:00:47;94438.16;;;6.31;57.77
10652;BME280;5374;42.742;23.266;2023-03-15T01:03:34;94407.88;;;6.11;57.67
10652;BME280;5374;42.742;23.266;2023-03-15T01:06:23;94415.47;;;6.30;58.05
10652;BME280;5374;42.742;23.266;2023-03-15T01:09:11;94396.59;;;6.16;58.10
10652;BME280;5374;42.742;23.266;2023-03-15T01:11:58;94419.72;;;6.36;58.16
10652;BME280;5374;42.742;23.266;2023-03-15T01:14:45;94410.44;;;6.28;58.25
10652;BME280;5374;42.742;23.266;2023-03-15T01:17:34;94422.13;;;6.37;58.64
10652;BME280;5374;42.742;23.266;2023-03-15T01:20:21;94414.22;;;6.37;58.68
10652;BME280;5374;42.742;23.266;2023-03-15T01:23:10;94390.09;;;6.24;58.70
10652;BME280;5374;42.742;23.266;2023-03-15T01:25:58;94403.91;;;6.36;58.94
10652;BME280;5374;42.742;23.266;2023-03-15T01:28:46;94404.16;;;6.34;58.90
10652;BME280;5374;42.742;23.266;2023-03-15T01:31:33;94395.25;;;6.40;58.76
10652;BME280;5374;42.742;23.266;2023-03-15T01:34:22;94399.75;;;6.40;58.50
10652;BME280;5374;42.742;23.266;2023-03-15T01:37:09;94400.78;;;6.39;58.55
10652;BME280;5374;42.742;23.266;2023-03-15T01:39:59;94394.97;;;6.37;58.67
10652;BME280;5374;42.742;23.266;2023-03-15T01:42:53;94351.47;;;6.07;58.64
10652;BME280;5374;42.742;23.266;2023-03-15T01:46:16;94388.06;;;6.31;58.86
10652;BME280;5374;42.742;23.266;2023-03-15T01:49:10;94395.97;;;6.31;58.79
10652;BME280;5374;42.742;23.266;2023-03-15T01:52:03;94389.66;;;6.32;58.79
10652;BME280;5374;42.742;23.266;2023-03-15T01:54:55;94371.34;;;6.20;59.13
10652;BME280;5374;42.742;23.266;2023-03-15T01:57:45;94375.69;;;6.31;59.00
10652;BME280;5374;42.742;23.266;2023-03-15T02:00:36;94284.16;;;5.73;59.13
10652;BME280;5374;42.742;23.266;2023-03-15T02:03:27;94365.63;;;6.28;59.05
10652;BME280;5374;42.742;23.266;2023-03-15T02:06:17;94362.69;;;6.25;59.34
10652;BME280;5374;42.742;23.266;2023-03-15T02:09:09;94359.50;;;6.23;59.30
10652;BME280;5374;42.742;23.266;2023-03-15T02:12:00;94357.13;;;6.21;59.46
10652;BME280;5374;42.742;23.266;2023-03-15T02:14:48;94361.53;;;6.15;59.55
10652;BME280;5374;42.742;23.266;2023-03-15T02:17:40;94348.31;;;6.10;59.94
10652;BME280;5374;42.742;23.266;2023-03-15T02:20:33;94342.75;;;6.07;60.03
10652;BME280;5374;42.742;23.266;2023-03-15T02:23:23;94319.66;;;5.92;60.03
10652;BME280;5374;42.742;23.266;2023-03-15T02:26:18;94336.88;;;6.00;59.92
10652;BME280;5374;42.742;23.266;2023-03-15T02:29:09;94314.88;;;5.89;60.16
10652;BME280;5374;42.742;23.266;2023-03-15T02:31:57;94336.28;;;5.93;60.28
10652;BME280;5374;42.742;23.266;2023-03-15T02:34:45;94313.78;;;5.85;60.49
10652;BME280;5374;42.742;23.266;2023-03-15T02:37:32;94331.97;;;5.87;60.81
10652;BME280;5374;42.742;23.266;2023-03-15T02:40:23;94329.59;;;5.85;60.97
10652;BME280;5374;42.742;23.266;2023-03-15T02:43:15;94327.50;;;5.87;60.95
10652;BME280;5374;42.742;23.266;2023-03-15T02:46:04;94339.09;;;5.86;61.02
10652;BME280;5374;42.742;23.266;2023-03-15T02:48:52;94304.34;;;5.67;61.23
10652;BME280;5374;42.742;23.266;2023-03-15T02:51:40;94325.63;;;5.82;61.09
10652;BME280;5374;42.742;23.266;2023-03-15T02:54:27;94316.38;;;5.80;61.04
10652;BME280;5374;42.742;23.266;2023-03-15T02:57:16;94319.78;;;5.80;60.85
10652;BME280;5374;42.742;23.266;2023-03-15T03:00:04;94311.59;;;5.77;61.07
10652;BME280;5374;42.742;23.266;2023-03-15T03:03:00;94314.72;;;5.74;61.14
10652;BME280;5374;42.742;23.266;2023-03-15T03:05:47;94301.13;;;5.60;61.21
10652;BME280;5374;42.742;23.266;2023-03-15T03:08:34;94309.63;;;5.67;61.22
10652;BME280;5374;42.742;23.266;2023-03-15T03:11:21;94298.19;;;5.57;61.22
10652;BME280;5374;42.742;23.266;2023-03-15T03:14:08;94296.38;;;5.57;61.43
10652;BME280;5374;42.742;23.266;2023-03-15T03:16:58;94296.78;;;5.49;61.73
10652;BME280;5374;42.742;23.266;2023-03-15T03:19:47;94320.22;;;5.50;61.38
10652;BME280;5374;42.742;23.266;2023-03-15T03:22:35;94305.72;;;5.48;61.35
10652;BME280;5374;42.742;23.266;2023-03-15T03:25:22;94281.00;;;5.27;61.82
10652;BME280;5374;42.742;23.266;2023-03-15T03:28:11;94292.06;;;5.51;62.40
10652;BME280;5374;42.742;23.266;2023-03-15T03:30:58;94286.19;;;5.44;62.75
10652;BME280;5374;42.742;23.266;2023-03-15T03:33:46;94296.19;;;5.42;62.71
10652;BME280;5374;42.742;23.266;2023-03-15T03:36:35;94280.50;;;5.30;62.89
10652;BME280;5374;42.742;23.266;2023-03-15T03:39:22;94277.16;;;5.35;63.11
10652;BME280;5374;42.742;23.266;2023-03-15T03:42:09;94287.50;;;5.41;62.99
10652;BME280;5374;42.742;23.266;2023-03-15T03:44:57;94282.75;;;5.43;63.30
10652;BME280;5374;42.742;23.266;2023-03-15T03:47:44;94278.81;;;5.41;63.51
10652;BME280;5374;42.742;23.266;2023-03-15T03:50:31;94288.56;;;5.45;63.52
10652;BME280;5374;42.742;23.266;2023-03-15T03:53:19;94283.88;;;5.47;63.59
10652;BME280;5374;42.742;23.266;2023-03-15T03:56:07;94276.75;;;5.48;63.48
10652;BME280;5374;42.742;23.266;2023-03-15T03:58:55;94273.09;;;5.49;63.31
10652;BME280;5374;42.742;23.266;2023-03-15T04:01:42;94264.72;;;5.52;63.11
10652;BME280;5374;42.742;23.266;2023-03-15T04:04:31;94262.63;;;5.54;63.00
10652;BME280;5374;42.742;23.266;2023-03-15T04:07:18;94254.22;;;5.57;62.71
10652;BME280;5374;42.742;23.266;2023-03-15T04:10:08;94258.22;;;5.60;62.63
10652;BME280;5374;42.742;23.266;2023-03-15T04:12:59;94259.56;;;5.62;62.57
10652;BME280;5374;42.742;23.266;2023-03-15T04:15:47;94264.31;;;5.65;62.63
10652;BME280;5374;42.742;23.266;2023-03-15T04:18:35;94267.75;;;5.66;62.87
10652;BME280;5374;42.742;23.266;2023-03-15T04:21:22;94258.56;;;5.68;62.67
10652;BME280;5374;42.742;23.266;2023-03-15T04:24:09;94254.63;;;5.71;62.64
10652;BME280;5374;42.742;23.266;2023-03-15T04:26:58;94237.16;;;5.60;62.57
10652;BME280;5374;42.742;23.266;2023-03-15T04:29:45;94254.69;;;5.76;63.00
10652;BME280;5374;42.742;23.266;2023-03-15T04:32:32;94237.97;;;5.65;62.97
10652;BME280;5374;42.742;23.266;2023-03-15T04:35:20;94257.63;;;5.79;62.85
10652;BME280;5374;42.742;23.266;2023-03-15T04:38:07;94249.72;;;5.79;62.84
10652;BME280;5374;42.742;23.266;2023-03-15T04:40:55;94252.34;;;5.79;62.77
10652;BME280;5374;42.742;23.266;2023-03-15T04:43:43;94211.56;;;5.55;62.67
10652;BME280;5374;42.742;23.266;2023-03-15T04:46:31;94242.91;;;5.83;62.56
10652;BME280;5374;42.742;23.266;2023-03-15T04:49:18;94226.50;;;5.76;62.35
10652;BME280;5374;42.742;23.266;2023-03-15T04:52:05;94245.59;;;5.89;62.15
10652;BME280;5374;42.742;23.266;2023-03-15T04:54:52;94243.22;;;5.87;62.02
10652;BME280;5374;42.742;23.266;2023-03-15T04:57:40;94248.53;;;5.92;62.29
10652;BME280;5374;42.742;23.266;2023-03-15T05:00:28;94243.53;;;5.91;62.18
10652;BME280;5374;42.742;23.266;2023-03-15T05:03:17;94244.06;;;5.93;62.06
10652;BME280;5374;42.742;23.266;2023-03-15T05:06:04;94235.41;;;5.97;61.98
10652;BME280;5374;42.742;23.266;2023-03-15T05:08:53;94244.41;;;6.01;62.05
10652;BME280;5374;42.742;23.266;2023-03-15T05:11:40;94248.69;;;6.07;62.03
10652;BME280;5374;42.742;23.266;2023-03-15T05:14:27;94246.06;;;6.12;62.23
10652;BME280;5374;42.742;23.266;2023-03-15T05:17:16;94227.63;;;6.07;62.33
10652;BME280;5374;42.742;23.266;2023-03-15T05:20:04;94242.69;;;6.17;62.49
10652;BME280;5374;42.742;23.266;2023-03-15T05:22:55;94244.94;;;6.30;62.67
10652;BME280;5374;42.742;23.266;2023-03-15T05:25:49;94243.09;;;6.31;62.68
10652;BME280;5374;42.742;23.266;2023-03-15T05:28:38;94249.97;;;6.37;62.39
10652;BME280;5374;42.742;23.266;2023-03-15T05:31:25;94251.59;;;6.43;61.77
10652;BME280;5374;42.742;23.266;2023-03-15T05:34:14;94249.00;;;6.48;61.23
10652;BME280;5374;42.742;23.266;2023-03-15T05:37:01;94239.03;;;6.55;60.16
10652;BME280;5374;42.742;23.266;2023-03-15T05:39:48;94246.41;;;6.95;58.11
10652;BME280;5374;42.742;23.266;2023-03-15T05:42:36;94231.00;;;7.34;56.70
10652;BME280;5374;42.742;23.266;2023-03-15T05:45:23;94232.03;;;7.33;57.35
10652;BME280;5374;42.742;23.266;2023-03-15T05:48:11;94236.53;;;7.33;57.81
10652;BME280;5374;42.742;23.266;2023-03-15T05:50:59;94243.09;;;7.25;57.82
10652;BME280;5374;42.742;23.266;2023-03-15T05:53:46;94241.81;;;7.33;57.53
10652;BME280;5374;42.742;23.266;2023-03-15T05:56:33;94220.44;;;7.34;56.92
10652;BME280;5374;42.742;23.266;2023-03-15T05:59:21;94235.28;;;7.55;56.68
10652;BME280;5374;42.742;23.266;2023-03-15T06:02:08;94229.75;;;7.62;56.53
10652;BME280;5374;42.742;23.266;2023-03-15T06:04:56;94223.94;;;7.70;55.78
10652;BME280;5374;42.742;23.266;2023-03-15T06:07:44;94199.69;;;8.14;54.39
10652;BME280;5374;42.742;23.266;2023-03-15T06:10:32;94227.41;;;10.06;51.22
10652;BME280;5374;42.742;23.266;2023-03-15T06:13:19;94213.84;;;15.31;41.19
10652;BME280;5374;42.742;23.266;2023-03-15T06:16:06;94208.50;;;20.87;30.52
10652;BME280;5374;42.742;23.266;2023-03-15T06:18:54;94211.44;;;20.54;29.85
10652;BME280;5374;42.742;23.266;2023-03-15T06:21:41;94208.47;;;20.19;27.39
10652;BME280;5374;42.742;23.266;2023-03-15T06:24:30;94236.16;;;21.40;25.85
10652;BME280;5374;42.742;23.266;2023-03-15T06:27:17;94245.09;;;21.28;24.76
10652;BME280;5374;42.742;23.266;2023-03-15T06:30:07;94239.72;;;20.08;26.24
10652;BME280;5374;42.742;23.266;2023-03-15T06:32:55;94233.31;;;19.52;25.86
10652;BME280;5374;42.742;23.266;2023-03-15T06:35:42;94242.88;;;19.86;25.79
10652;BME280;5374;42.742;23.266;2023-03-15T06:38:31;94235.63;;;18.33;27.30
10652;BME280;5374;42.742;23.266;2023-03-15T06:41:20;94223.53;;;16.58;29.53
10652;BME280;5374;42.742;23.266;2023-03-15T06:44:08;94225.41;;;15.49;30.92
10652;BME280;5374;42.742;23.266;2023-03-15T06:46:55;94230.97;;;14.90;31.97
10652;BME280;5374;42.742;23.266;2023-03-15T06:49:42;94224.78;;;16.86;29.96
10652;BME280;5374;42.742;23.266;2023-03-15T06:52:29;94212.47;;;16.51;30.41
10652;BME280;5374;42.742;23.266;2023-03-15T06:55:16;94214.88;;;18.42;28.25
10652;BME280;5374;42.742;23.266;2023-03-15T06:58:05;94222.00;;;20.35;26.27
10652;BME280;5374;42.742;23.266;2023-03-15T07:00:52;94224.81;;;20.51;25.87
10652;BME280;5374;42.742;23.266;2023-03-15T07:03:39;94228.09;;;21.28;24.76
10652;BME280;5374;42.742;23.266;2023-03-15T07:06:27;94224.78;;;20.91;25.27
10652;BME280;5374;42.742;23.266;2023-03-15T07:09:14;94205.31;;;21.41;25.03
10652;BME280;5374;42.742;23.266;2023-03-15T07:12:01;94207.88;;;20.78;25.74
10652;BME280;5374;42.742;23.266;2023-03-15T07:14:50;94209.16;;;20.04;25.45
10652;BME280;5374;42.742;23.266;2023-03-15T07:17:37;94206.78;;;18.84;26.86
10652;BME280;5374;42.742;23.266;2023-03-15T07:20:24;94209.94;;;18.98;27.24
10652;BME280;5374;42.742;23.266;2023-03-15T07:23:11;94213.94;;;18.38;27.86
10652;BME280;5374;42.742;23.266;2023-03-15T07:25:59;94204.41;;;17.79;27.87
10652;BME280;5374;42.742;23.266;2023-03-15T07:28:46;94214.25;;;17.66;29.08
10652;BME280;5374;42.742;23.266;2023-03-15T07:31:34;94212.66;;;17.27;29.31
10652;BME280;5374;42.742;23.266;2023-03-15T07:34:22;94213.53;;;17.01;29.40
10652;BME280;5374;42.742;23.266;2023-03-15T07:37:09;94224.94;;;16.72;31.15
10652;BME280;5374;42.742;23.266;2023-03-15T07:39:56;94212.16;;;16.61;30.51
10652;BME280;5374;42.742;23.266;2023-03-15T07:42:45;94206.00;;;16.60;30.12
10652;BME280;5374;42.742;23.266;2023-03-15T07:45:32;94204.94;;;16.70;30.42
10652;BME280;5374;42.742;23.266;2023-03-15T07:48:21;94210.13;;;16.49;30.56
10652;BME280;5374;42.742;23.266;2023-03-15T07:51:08;94209.00;;;16.59;30.80
10652;BME280;5374;42.742;23.266;2023-03-15T07:53:55;94203.63;;;16.93;30.12
10652;BME280;5374;42.742;23.266;2023-03-15T07:56:42;94193.41;;;16.78;31.42
10652;BME280;5374;42.742;23.266;2023-03-15T07:59:30;94196.72;;;16.06;31.44
10652;BME280;5374;42.742;23.266;2023-03-15T08:02:17;94182.25;;;16.24;30.75
10652;BME280;5374;42.742;23.266;2023-03-15T08:05:07;94192.19;;;16.24;31.45
10652;BME280;5374;42.742;23.266;2023-03-15T08:07:54;94186.78;;;16.06;31.61
10652;BME280;5374;42.742;23.266;2023-03-15T08:10:43;94165.50;;;15.67;31.17
10652;BME280;5374;42.742;23.266;2023-03-15T08:13:30;94188.97;;;15.70;32.01
10652;BME280;5374;42.742;23.266;2023-03-15T08:16:18;94189.00;;;15.79;31.98
10652;BME280;5374;42.742;23.266;2023-03-15T08:19:05;94177.19;;;15.80;31.92
10652;BME280;5374;42.742;23.266;2023-03-15T08:21:54;94167.88;;;15.20;32.44
10652;BME280;5374;42.742;23.266;2023-03-15T08:24:41;94165.13;;;15.03;33.43
10652;BME280;5374;42.742;23.266;2023-03-15T08:27:30;94178.38;;;15.08;33.58
10652;BME280;5374;42.742;23.266;2023-03-15T08:30:18;94178.94;;;15.36;33.07
10652;BME280;5374;42.742;23.266;2023-03-15T08:33:06;94177.13;;;15.62;32.10
10652;BME280;5374;42.742;23.266;2023-03-15T08:35:54;94163.00;;;15.70;32.48
10652;BME280;5374;42.742;23.266;2023-03-15T08:38:42;94165.97;;;15.69;34.10
10652;BME280;5374;42.742;23.266;2023-03-15T08:41:30;94153.72;;;15.85;34.03
10652;BME280;5374;42.742;23.266;2023-03-15T08:44:17;94161.75;;;15.94;33.37
10652;BME280;5374;42.742;23.266;2023-03-15T08:47:04;94160.47;;;15.83;32.34
10652;BME280;5374;42.742;23.266;2023-03-15T08:49:51;94151.38;;;16.01;32.31
10652;BME280;5374;42.742;23.266;2023-03-15T08:52:39;94160.00;;;16.32;34.24
10652;BME280;5374;42.742;23.266;2023-03-15T08:55:27;94164.91;;;16.30;33.14
10652;BME280;5374;42.742;23.266;2023-03-15T08:58:15;94155.75;;;16.49;32.15
10652;BME280;5374;42.742;23.266;2023-03-15T09:01:02;94146.78;;;16.10;32.40
10652;BME280;5374;42.742;23.266;2023-03-15T09:03:50;94164.59;;;15.89;33.14
10652;BME280;5374;42.742;23.266;2023-03-15T09:06:37;94154.94;;;15.62;33.65
10652;BME280;5374;42.742;23.266;2023-03-15T09:09:25;94157.72;;;15.48;33.58
10652;BME280;5374;42.742;23.266;2023-03-15T09:12:15;94148.81;;;15.61;33.89
10652;BME280;5374;42.742;23.266;2023-03-15T09:15:03;94154.50;;;15.68;34.04
10652;BME280;5374;42.742;23.266;2023-03-15T09:17:50;94147.88;;;15.57;34.00
10652;BME280;5374;42.742;23.266;2023-03-15T09:20:37;94133.31;;;15.41;34.06
10652;BME280;5374;42.742;23.266;2023-03-15T09:23:24;94156.63;;;15.49;34.63
10652;BME280;5374;42.742;23.266;2023-03-15T09:26:12;94130.88;;;15.14;34.15
10652;BME280;5374;42.742;23.266;2023-03-15T09:29:00;94143.44;;;15.04;35.27
10652;BME280;5374;42.742;23.266;2023-03-15T09:31:47;94149.53;;;14.96;35.06
10652;BME280;5374;42.742;23.266;2023-03-15T09:34:34;94140.72;;;14.96;36.91
10652;BME280;5374;42.742;23.266;2023-03-15T09:37:22;94137.91;;;15.01;35.90
10652;BME280;5374;42.742;23.266;2023-03-15T09:40:15;94136.81;;;15.02;35.74
10652;BME280;5374;42.742;23.266;2023-03-15T09:43:16;94128.22;;;14.74;35.92
10652;BME280;5374;42.742;23.266;2023-03-15T09:46:19;94120.38;;;14.78;35.88
10652;BME280;5374;42.742;23.266;2023-03-15T09:49:13;94100.22;;;14.71;36.29
10652;BME280;5374;42.742;23.266;2023-03-15T09:52:12;94107.75;;;14.38;36.36
10652;BME280;5374;42.742;23.266;2023-03-15T09:55:09;94108.09;;;14.01;37.40
10652;BME280;5374;42.742;23.266;2023-03-15T09:57:59;94105.31;;;13.84;38.07
10652;BME280;5374;42.742;23.266;2023-03-15T10:00:50;94111.16;;;14.08;37.71
10652;BME280;5374;42.742;23.266;2023-03-15T10:03:43;94112.84;;;14.26;36.40
10652;BME280;5374;42.742;23.266;2023-03-15T10:06:34;94122.69;;;14.17;36.71
10652;BME280;5374;42.742;23.266;2023-03-15T10:09:24;94125.75;;;13.88;37.05
10652;BME280;5374;42.742;23.266;2023-03-15T10:12:14;94120.59;;;13.69;37.57
10652;BME280;5374;42.742;23.266;2023-03-15T10:15:20;94131.00;;;13.80;37.68
10652;BME280;5374;42.742;23.266;2023-03-15T10:18:19;94119.00;;;13.68;37.72
10652;BME280;5374;42.742;23.266;2023-03-15T10:21:17;94117.88;;;13.83;38.07
10652;BME280;5374;42.742;23.266;2023-03-15T10:24:16;94107.28;;;14.14;37.12
10652;BME280;5374;42.742;23.266;2023-03-15T10:27:18;94120.47;;;14.64;38.60
10652;BME280;5374;42.742;23.266;2023-03-15T10:30:15;94116.81;;;14.91;35.93
10652;BME280;5374;42.742;23.266;2023-03-15T10:33:09;94120.25;;;14.91;35.89
10652;BME280;5374;42.742;23.266;2023-03-15T10:36:02;94114.69;;;14.17;37.04
10652;BME280;5374;42.742;23.266;2023-03-15T10:38:58;94115.75;;;13.94;37.57
10652;BME280;5374;42.742;23.266;2023-03-15T10:41:47;94115.94;;;14.20;37.21
10652;BME280;5374;42.742;23.266;2023-03-15T10:44:35;94118.03;;;14.23;36.23
10652;BME280;5374;42.742;23.266;2023-03-15T10:47:24;94105.69;;;14.13;36.84
10652;BME280;5374;42.742;23.266;2023-03-15T10:50:17;94112.19;;;14.21;36.79
10652;BME280;5374;42.742;23.266;2023-03-15T10:53:08;94108.72;;;14.20;36.50
10652;BME280;5374;42.742;23.266;2023-03-15T10:56:00;94081.78;;;14.08;36.84
10652;BME280;5374;42.742;23.266;2023-03-15T10:58:47;94102.75;;;14.23;37.29
10652;BME280;5374;42.742;23.266;2023-03-15T11:01:37;94114.59;;;14.31;37.56
10652;BME280;5374;42.742;23.266;2023-03-15T11:04:25;94114.88;;;13.98;37.25
10652;BME280;5374;42.742;23.266;2023-03-15T11:07:13;94109.34;;;13.95;36.96
10652;BME280;5374;42.742;23.266;2023-03-15T11:10:02;94113.88;;;13.94;37.65
10652;BME280;5374;42.742;23.266;2023-03-15T11:13:08;94106.00;;;13.89;37.41
10652;BME280;5374;42.742;23.266;2023-03-15T11:16:01;94103.19;;;13.72;37.99
10652;BME280;5374;42.742;23.266;2023-03-15T11:18:51;94110.94;;;13.82;38.40
10652;BME280;5374;42.742;23.266;2023-03-15T11:21:41;94103.44;;;13.84;38.68
10652;BME280;5374;42.742;23.266;2023-03-15T11:24:31;94091.00;;;13.80;39.07
10652;BME280;5374;42.742;23.266;2023-03-15T11:27:21;94101.34;;;13.95;39.63
10652;BME280;5374;42.742;23.266;2023-03-15T11:30:15;94099.88;;;14.11;40.26
10652;BME280;5374;42.742;23.266;2023-03-15T11:33:07;94093.19;;;14.22;41.10
10652;BME280;5374;42.742;23.266;2023-03-15T11:35:56;94100.16;;;14.32;41.32
10652;BME280;5374;42.742;23.266;2023-03-15T11:38:44;94104.09;;;14.34;42.51
10652;BME280;5374;42.742;23.266;2023-03-15T11:41:35;94098.16;;;14.37;42.07
10652;BME280;5374;42.742;23.266;2023-03-15T11:44:29;94090.34;;;14.41;41.84
10652;BME280;5374;42.742;23.266;2023-03-15T11:47:25;94082.03;;;14.43;42.49
10652;BME280;5374;42.742;23.266;2023-03-15T11:50:18;94092.72;;;14.43;43.89
10652;BME280;5374;42.742;23.266;2023-03-15T11:53:05;94086.31;;;14.30;46.95
10652;BME280;5374;42.742;23.266;2023-03-15T11:55:52;94086.28;;;14.21;48.57
10652;BME280;5374;42.742;23.266;2023-03-15T11:58:40;94079.19;;;14.17;48.95
10652;BME280;5374;42.742;23.266;2023-03-15T12:01:28;94085.72;;;14.11;49.95
10652;BME280;5374;42.742;23.266;2023-03-15T12:07:37;94075.97;;;13.84;51.69
10652;BME280;5374;42.742;23.266;2023-03-15T12:10:42;94084.16;;;13.87;52.48
10652;BME280;5374;42.742;23.266;2023-03-15T12:13:34;94051.34;;;13.64;53.13
10652;BME280;5374;42.742;23.266;2023-03-15T12:16:24;94072.81;;;13.82;53.26
10652;BME280;5374;42.742;23.266;2023-03-15T12:19:15;94023.69;;;13.60;53.12
10652;BME280;5374;42.742;23.266;2023-03-15T12:22:04;94067.34;;;13.87;52.87
10652;BME280;5374;42.742;23.266;2023-03-15T12:24:51;94060.56;;;13.81;53.30
10652;BME280;5374;42.742;23.266;2023-03-15T12:27:44;94050.69;;;13.81;53.35
10652;BME280;5374;42.742;23.266;2023-03-15T12:30:37;94031.41;;;13.62;52.98
10652;BME280;5374;42.742;23.266;2023-03-15T12:33:27;94056.75;;;13.73;51.85
10652;BME280;5374;42.742;23.266;2023-03-15T12:36:25;94036.72;;;13.62;51.98
10652;BME280;5374;42.742;23.266;2023-03-15T12:39:35;94051.94;;;13.61;51.18
10652;BME280;5374;42.742;23.266;2023-03-15T12:42:58;94043.25;;;13.56;51.33
10652;BME280;5374;42.742;23.266;2023-03-15T12:45:46;94045.88;;;13.47;50.35
10652;BME280;5374;42.742;23.266;2023-03-15T12:48:33;94054.59;;;13.39;50.23
10652;BME280;5374;42.742;23.266;2023-03-15T12:51:41;94042.66;;;13.37;49.26
10652;BME280;5374;42.742;23.266;2023-03-15T12:54:36;94036.34;;;13.32;48.80
10652;BME280;5374;42.742;23.266;2023-03-15T12:57:27;94031.53;;;13.21;48.51
10652;BME280;5374;42.742;23.266;2023-03-15T13:00:16;94022.63;;;13.12;48.79
10652;BME280;5374;42.742;23.266;2023-03-15T13:03:06;94007.44;;;13.12;47.55
10652;BME280;5374;42.742;23.266;2023-03-15T13:06:00;94043.88;;;13.30;46.70
10652;BME280;5374;42.742;23.266;2023-03-15T13:08:53;94042.16;;;13.34;46.45
10652;BME280;5374;42.742;23.266;2023-03-15T13:11:50;94037.44;;;13.31;46.41
10652;BME280;5374;42.742;23.266;2023-03-15T13:14:44;94034.06;;;13.40;46.15
10652;BME280;5374;42.742;23.266;2023-03-15T13:17:39;94041.34;;;13.48;46.36
10652;BME280;5374;42.742;23.266;2023-03-15T13:20:52;94035.94;;;13.61;47.62
10652;BME280;5374;42.742;23.266;2023-03-15T13:23:48;94021.59;;;13.71;46.39
10652;BME280;5374;42.742;23.266;2023-03-15T13:26:50;94045.28;;;13.95;46.17
10652;BME280;5374;42.742;23.266;2023-03-15T13:29:41;94037.81;;;14.06;45.99
10652;BME280;5374;42.742;23.266;2023-03-15T13:32:28;94028.41;;;14.08;45.96
10652;BME280;5374;42.742;23.266;2023-03-15T13:35:16;94052.66;;;14.20;44.87
10652;BME280;5374;42.742;23.266;2023-03-15T13:38:06;94055.47;;;14.15;44.91
10652;BME280;5374;42.742;23.266;2023-03-15T13:40:55;94055.47;;;14.15;45.04
10652;BME280;5374;42.742;23.266;2023-03-15T13:43:48;94053.47;;;14.21;44.62
10652;BME280;5374;42.742;23.266;2023-03-15T13:46:35;94061.00;;;14.27;44.54
10652;BME280;5374;42.742;23.266;2023-03-15T13:49:23;94036.66;;;14.20;44.27
10652;BME280;5374;42.742;23.266;2023-03-15T13:52:11;94050.38;;;14.36;43.57
10652;BME280;5374;42.742;23.266;2023-03-15T13:55:00;94051.16;;;14.36;43.25
10652;BME280;5374;42.742;23.266;2023-03-15T13:57:51;94049.78;;;14.39;43.20
10652;BME280;5374;42.742;23.266;2023-03-15T14:00:41;94052.66;;;14.43;43.46
10652;BME280;5374;42.742;23.266;2023-03-15T14:03:28;94055.41;;;14.37;43.56
10652;BME280;5374;42.742;23.266;2023-03-15T14:06:21;94057.13;;;14.33;43.90
10652;BME280;5374;42.742;23.266;2023-03-15T14:09:14;94061.28;;;14.17;44.21
10652;BME280;5374;42.742;23.266;2023-03-15T14:12:05;94063.41;;;14.07;44.42
10652;BME280;5374;42.742;23.266;2023-03-15T14:14:52;94046.41;;;14.02;45.22
10652;BME280;5374;42.742;23.266;2023-03-15T14:17:50;94052.22;;;13.96;45.98
10652;BME280;5374;42.742;23.266;2023-03-15T14:20:40;94046.72;;;13.79;45.94
10652;BME280;5374;42.742;23.266;2023-03-15T14:23:28;94050.75;;;13.67;46.81
10652;BME280;5374;42.742;23.266;2023-03-15T14:26:18;94051.16;;;13.61;47.28
10652;BME280;5374;42.742;23.266;2023-03-15T14:29:14;94052.53;;;13.58;47.48
10652;BME280;5374;42.742;23.266;2023-03-15T14:32:05;94048.56;;;13.33;48.34
10652;BME280;5374;42.742;23.266;2023-03-15T14:34:58;94027.38;;;13.28;48.64
10652;BME280;5374;42.742;23.266;2023-03-15T14:37:46;94042.78;;;13.31;49.05
10652;BME280;5374;42.742;23.266;2023-03-15T14:40:35;94043.97;;;13.25;49.61
10652;BME280;5374;42.742;23.266;2023-03-15T14:43:24;94049.22;;;13.17;50.41
10652;BME280;5374;42.742;23.266;2023-03-15T14:46:11;94049.78;;;13.14;51.09
10652;BME280;5374;42.742;23.266;2023-03-15T14:48:58;94044.19;;;13.01;51.27
10652;BME280;5374;42.742;23.266;2023-03-15T14:51:51;94027.91;;;12.89;52.11
10652;BME280;5374;42.742;23.266;2023-03-15T14:54:45;94051.09;;;13.02;52.57
10652;BME280;5374;42.742;23.266;2023-03-15T14:57:33;94048.75;;;12.87;53.25
10652;BME280;5374;42.742;23.266;2023-03-15T15:00:21;94049.06;;;12.86;54.04
10652;BME280;5374;42.742;23.266;2023-03-15T15:03:15;94035.53;;;12.82;55.17
10652;BME280;5374;42.742;23.266;2023-03-15T15:06:04;94045.88;;;12.70;54.11
10652;BME280;5374;42.742;23.266;2023-03-15T15:08:55;94046.59;;;12.62;54.78